createdAt,value
2018-05-16T00:01:11.693Z,13.38
2018-05-16T00:03:42.594Z,13.55
2018-05-16T00:06:14.005Z,13.47
2018-05-16T00:08:49.168Z,13.55
2018-05-16T00:11:19.954Z,13.55
2018-05-16T00:13:52.321Z,13.32
2018-05-16T00:16:25.720Z,13.35
2018-05-16T00:18:56.672Z,12.93
2018-05-16T00:21:27.812Z,13.29
2018-05-16T00:24:00.201Z,13.43
2018-05-16T00:26:31.118Z,13.56
2018-05-16T00:29:02.213Z,13.23
2018-05-16T00:31:51.852Z,13.36
2018-05-16T00:34:24.175Z,13.33
2018-05-16T00:36:56.428Z,13.16
2018-05-16T00:39:27.339Z,13.45
2018-05-16T00:41:58.034Z,13.30
2018-05-16T00:44:30.143Z,13.28
2018-05-16T00:47:00.861Z,12.95
2018-05-16T00:49:31.549Z,13.39
2018-05-16T00:52:07.158Z,13.21
2018-05-16T00:54:38.218Z,13.08
2018-05-16T00:57:09.045Z,13.38
2018-05-16T00:59:39.837Z,13.15
2018-05-16T01:02:18.671Z,13.22
2018-05-16T01:04:49.475Z,13.26
2018-05-16T01:07:20.357Z,13.09
2018-05-16T01:10:07.627Z,12.87
2018-05-16T01:12:38.426Z,13.05
2018-05-16T01:15:10.045Z,13.01
2018-05-16T01:17:41.601Z,13.34
2018-05-16T01:20:12.686Z,13.19
2018-05-16T01:22:43.454Z,12.95
2018-05-16T01:25:14.363Z,12.88
2018-05-16T01:27:44.966Z,12.80
2018-05-16T01:30:15.785Z,13.04
2018-05-16T01:32:46.822Z,13.08
2018-05-16T01:35:17.745Z,12.97
2018-05-16T01:37:48.577Z,12.77
2018-05-16T01:40:23.032Z,12.79
2018-05-16T01:42:53.774Z,13.11
2018-05-16T01:45:26.605Z,12.89
2018-05-16T01:47:58.792Z,13.35
2018-05-16T01:50:30.182Z,13.26
2018-05-16T01:53:01.970Z,13.43
2018-05-16T01:55:32.858Z,13.33
2018-05-16T01:58:05.223Z,13.51
2018-05-16T02:00:36.313Z,13.30
2018-05-16T02:03:10.235Z,13.30
2018-05-16T02:05:41.334Z,13.35
2018-05-16T02:08:14.884Z,13.17
2018-05-16T02:10:45.990Z,13.14
2018-05-16T02:13:16.657Z,13.21
2018-05-16T02:15:47.394Z,13.26
2018-05-16T02:18:28.638Z,13.07
2018-05-16T02:20:59.642Z,13.28
2018-05-16T02:23:30.470Z,13.35
2018-05-16T02:26:01.509Z,13.39
2018-05-16T02:28:32.332Z,13.31
2018-05-16T02:31:03.335Z,13.51
2018-05-16T02:33:41.974Z,13.50
2018-05-16T02:36:12.655Z,13.42
2018-05-16T02:38:43.478Z,13.49
2018-05-16T02:41:14.320Z,13.51
2018-05-16T02:43:45.058Z,13.44
2018-05-16T02:46:16.250Z,13.45
2018-05-16T02:48:47.054Z,13.56
2018-05-16T02:51:17.530Z,13.35
2018-05-16T02:53:49.613Z,13.53
2018-05-16T02:56:20.531Z,13.60
2018-05-16T02:58:51.262Z,13.59
2018-05-16T03:01:21.742Z,13.50
2018-05-16T03:03:52.671Z,13.56
2018-05-16T03:06:23.356Z,13.51
2018-05-16T03:08:54.094Z,13.29
2018-05-16T03:11:25.294Z,13.24
2018-05-16T03:13:55.736Z,13.15
2018-05-16T03:16:26.491Z,13.12
2018-05-16T03:18:56.938Z,13.37
2018-05-16T03:21:27.384Z,13.49
2018-05-16T03:23:57.818Z,13.43
2018-05-16T03:26:28.760Z,13.51
2018-05-16T03:28:59.544Z,13.34
2018-05-16T03:31:30.393Z,13.41
2018-05-16T03:34:01.093Z,13.30
2018-05-16T03:36:31.901Z,13.37
2018-05-16T03:39:02.718Z,13.14
2018-05-16T03:41:33.917Z,13.14
2018-05-16T03:44:04.798Z,13.26
2018-05-16T03:46:35.795Z,13.26
2018-05-16T03:49:06.633Z,13.50
2018-05-16T03:51:37.726Z,13.41
2018-05-16T03:54:08.457Z,13.37
2018-05-16T03:56:39.682Z,13.34
2018-05-16T04:00:21.350Z,13.13
2018-05-16T04:04:09.609Z,12.99
2018-05-16T04:06:40.332Z,13.25
2018-05-16T04:09:10.966Z,13.30
2018-05-16T04:11:41.654Z,12.88
2018-05-16T04:14:12.869Z,12.79
2018-05-16T04:16:43.602Z,12.87
2018-05-16T04:19:14.636Z,13.04
2018-05-16T04:24:46.031Z,13.34
2018-05-16T04:27:17.198Z,12.91
2018-05-16T04:29:48.317Z,13.01
2018-05-16T04:32:19.224Z,13.30
2018-05-16T04:34:52.429Z,12.97
2018-05-16T04:37:23.616Z,13.23
2018-05-16T04:39:54.452Z,12.91
2018-05-16T04:42:25.295Z,13.18
2018-05-16T04:44:56.201Z,13.20
2018-05-16T04:47:27.029Z,13.35
2018-05-16T04:49:57.969Z,13.24
2018-05-16T04:52:28.737Z,13.21
2018-05-16T04:54:59.587Z,12.99
2018-05-16T04:57:34.890Z,13.07
2018-05-16T05:00:05.674Z,13.28
2018-05-16T05:02:36.467Z,13.57
2018-05-16T05:05:20.254Z,13.41
2018-05-16T05:07:50.890Z,13.02
2018-05-16T05:10:21.749Z,13.28
2018-05-16T05:12:52.477Z,13.31
2018-05-16T05:15:26.495Z,12.81
2018-05-16T05:17:57.202Z,13.36
2018-05-16T05:20:28.188Z,13.29
2018-05-16T05:22:58.742Z,13.25
2018-05-16T05:25:29.898Z,13.33
2018-05-16T05:28:03.405Z,13.50
2018-05-16T05:30:34.786Z,13.62
2018-05-16T05:33:06.134Z,13.29
2018-05-16T05:35:38.159Z,13.34
2018-05-16T05:38:10.198Z,12.94
2018-05-16T05:40:41.146Z,13.01
2018-05-16T05:43:12.839Z,12.87
2018-05-16T05:45:43.978Z,12.91
2018-05-16T05:48:17.110Z,13.26
2018-05-16T05:50:47.953Z,13.07
2018-05-16T05:53:18.689Z,13.26
2018-05-16T05:55:49.514Z,13.23
2018-05-16T05:58:20.189Z,13.10
2018-05-16T06:00:58.332Z,13.66
2018-05-16T06:03:28.758Z,13.58
2018-05-16T06:05:59.208Z,13.64
2018-05-16T06:08:29.645Z,13.58
2018-05-16T06:11:01.015Z,13.59
2018-05-16T06:13:31.866Z,13.52
2018-05-16T06:16:04.969Z,13.56
2018-05-16T06:18:35.689Z,13.62
2018-05-16T06:21:06.181Z,13.69
2018-05-16T06:23:36.749Z,13.65
2018-05-16T06:26:07.470Z,13.50
2018-05-16T06:28:39.095Z,13.44
2018-05-16T06:31:09.833Z,13.38
2018-05-16T06:33:40.497Z,13.53
2018-05-16T06:36:11.350Z,13.52
2018-05-16T06:38:42.477Z,13.82
2018-05-16T06:41:13.209Z,14.04
2018-05-16T06:43:43.982Z,13.37
2018-05-16T06:46:31.426Z,13.37
2018-05-16T06:49:02.147Z,13.45
2018-05-16T06:51:33.040Z,13.45
2018-05-16T06:54:03.765Z,13.63
2018-05-16T06:56:34.773Z,13.59
2018-05-16T06:59:05.593Z,13.74
2018-05-16T07:01:36.445Z,13.93
2018-05-16T07:04:07.300Z,14.17
2018-05-16T07:06:38.055Z,14.12
2018-05-16T07:09:08.847Z,13.97
2018-05-16T07:11:39.848Z,13.71
2018-05-16T07:14:10.487Z,13.68
2018-05-16T07:17:04.558Z,13.71
2018-05-16T07:19:35.197Z,14.39
2018-05-16T07:22:06.077Z,14.13
2018-05-16T07:24:36.922Z,14.04
2018-05-16T07:27:07.777Z,14.45
2018-05-16T07:29:38.547Z,14.76
2018-05-16T07:32:09.290Z,14.59
2018-05-16T07:34:40.082Z,14.60
2018-05-16T07:37:11.401Z,14.71
2018-05-16T07:39:45.992Z,14.64
2018-05-16T07:42:17.261Z,14.68
2018-05-16T07:44:48.377Z,14.45
2018-05-16T07:47:19.061Z,14.78
2018-05-16T07:49:49.934Z,14.51
2018-05-16T07:52:31.401Z,14.32
2018-05-16T07:55:02.207Z,14.70
2018-05-16T07:57:33.115Z,14.72
2018-05-16T08:00:04.268Z,14.64
2018-05-16T08:02:35.515Z,14.67
2018-05-16T08:05:06.225Z,14.31
2018-05-16T08:07:37.402Z,14.50
2018-05-16T08:10:10.037Z,14.46
2018-05-16T08:12:40.797Z,14.55
2018-05-16T08:15:13.398Z,14.83
2018-05-16T08:17:44.241Z,14.76
2018-05-16T08:20:28.672Z,14.23
2018-05-16T08:23:02.217Z,14.39
2018-05-16T08:25:32.974Z,14.52
2018-05-16T08:28:05.461Z,14.42
2018-05-16T08:30:37.434Z,14.17
2018-05-16T08:33:08.829Z,14.04
2018-05-16T08:35:41.572Z,14.29
2018-05-16T08:38:13.761Z,14.38
2018-05-16T08:40:45.629Z,14.50
2018-05-16T08:43:16.710Z,14.55
2018-05-16T08:45:47.530Z,14.74
2018-05-16T08:48:19.738Z,14.79
2018-05-16T08:50:52.343Z,14.51
2018-05-16T08:53:29.189Z,14.64
2018-05-16T08:56:00.822Z,14.68
2018-05-16T08:58:33.480Z,14.89
2018-05-16T09:01:07.109Z,14.82
2018-05-16T09:03:38.858Z,15.12
2018-05-16T09:06:20.086Z,14.65
2018-05-16T09:08:52.672Z,14.32
2018-05-16T09:11:24.344Z,14.46
2018-05-16T09:13:56.269Z,14.58
2018-05-16T09:16:29.400Z,14.74
2018-05-16T09:19:03.974Z,14.54
2018-05-16T09:21:37.085Z,14.47
2018-05-16T09:24:08.711Z,14.65
2018-05-16T09:26:42.874Z,14.88
2018-05-16T09:29:14.997Z,14.80
2018-05-16T09:31:47.155Z,14.91
2018-05-16T09:34:18.993Z,14.81
2018-05-16T09:36:51.913Z,15.00
2018-05-16T09:39:23.507Z,14.81
2018-05-16T09:41:54.524Z,15.08
2018-05-16T09:44:25.636Z,14.80
2018-05-16T09:46:56.331Z,14.91
2018-05-16T09:49:27.177Z,14.73
2018-05-16T09:52:05.402Z,14.52
2018-05-16T09:54:36.234Z,14.47
2018-05-16T09:57:08.029Z,14.72
2018-05-16T09:59:39.109Z,14.63
2018-05-16T10:02:09.875Z,14.38
2018-05-16T10:04:40.681Z,14.70
2018-05-16T10:07:17.529Z,14.85
2018-05-16T10:09:48.406Z,14.99
2018-05-16T10:12:19.164Z,14.65
2018-05-16T10:14:49.993Z,14.86
2018-05-16T10:17:20.774Z,14.71
2018-05-16T10:19:51.529Z,14.94
2018-05-16T10:22:22.415Z,14.64
2018-05-16T10:24:53.119Z,14.83
2018-05-16T10:27:24.005Z,14.92
2018-05-16T10:29:55.225Z,14.98
2018-05-16T10:32:26.204Z,14.98
2018-05-16T10:34:56.976Z,14.96
2018-05-16T10:37:27.906Z,14.98
2018-05-16T10:39:58.914Z,15.14
2018-05-16T10:42:29.764Z,15.29
2018-05-16T10:45:00.601Z,15.31
2018-05-16T10:47:36.337Z,15.66
2018-05-16T10:50:07.241Z,15.61
2018-05-16T10:52:39.405Z,15.63
2018-05-16T10:55:10.077Z,15.36
2018-05-16T10:57:40.733Z,15.35
2018-05-16T11:00:11.609Z,15.37
2018-05-16T11:02:42.626Z,15.25
2018-05-16T11:05:13.738Z,15.59
2018-05-16T11:07:44.550Z,15.44
2018-05-16T11:10:15.845Z,15.58
2018-05-16T11:12:46.521Z,15.95
2018-05-16T11:15:17.502Z,16.15
2018-05-16T11:17:50.475Z,15.58
2018-05-16T11:20:21.310Z,15.35
2018-05-16T11:22:52.029Z,15.33
2018-05-16T11:25:24.237Z,15.66
2018-05-16T11:27:55.118Z,15.66
2018-05-16T11:30:26.062Z,15.82
2018-05-16T11:32:56.832Z,15.61
2018-05-16T11:35:27.596Z,15.47
2018-05-16T11:37:58.532Z,15.30
2018-05-16T11:40:34.397Z,15.30
2018-05-16T11:43:05.867Z,15.06
2018-05-16T11:45:37.699Z,15.31
2018-05-16T11:48:09.507Z,15.33
2018-05-16T11:50:40.302Z,15.42
2018-05-16T11:53:11.593Z,15.47
2018-05-16T11:55:42.177Z,15.18
2018-05-16T11:58:12.615Z,15.04
2018-05-16T12:00:44.761Z,14.82
2018-05-16T12:03:15.580Z,14.71
2018-05-16T12:05:46.669Z,14.59
2018-05-16T12:08:17.397Z,14.66
2018-05-16T12:10:48.513Z,14.63
2018-05-16T12:13:19.345Z,14.93
2018-05-16T12:15:50.202Z,15.25
2018-05-16T12:18:20.782Z,15.47
2018-05-16T12:20:57.517Z,15.54
2018-05-16T12:23:28.348Z,15.66
2018-05-16T12:25:59.054Z,15.75
2018-05-16T12:28:29.718Z,16.00
2018-05-16T12:31:00.577Z,15.72
2018-05-16T12:33:36.293Z,15.95
2018-05-16T12:36:07.489Z,16.10
2018-05-16T12:38:38.258Z,16.23
2018-05-16T12:41:09.894Z,15.82
2018-05-16T12:43:41.217Z,15.97
2018-05-16T12:46:12.747Z,15.96
2018-05-16T12:48:43.633Z,15.46
2018-05-16T12:51:14.419Z,15.36
2018-05-16T12:53:47.399Z,15.69
2018-05-16T12:56:18.380Z,15.63
2018-05-16T12:58:49.240Z,15.63
2018-05-16T13:01:23.971Z,15.54
2018-05-16T13:03:55.118Z,16.09
2018-05-16T13:06:26.229Z,16.26
2018-05-16T13:08:56.994Z,16.38
2018-05-16T13:11:27.722Z,16.07
2018-05-16T13:14:03.209Z,15.55
2018-05-16T13:16:34.005Z,15.54
2018-05-16T13:19:04.680Z,15.47
2018-05-16T13:21:35.806Z,15.47
2018-05-16T13:24:06.439Z,15.51
2018-05-16T13:26:37.161Z,15.64
2018-05-16T13:29:07.581Z,15.61
2018-05-16T13:31:37.990Z,15.84
2018-05-16T13:34:08.772Z,15.68
2018-05-16T13:36:39.592Z,15.83
2018-05-16T13:39:10.890Z,16.02
2018-05-16T13:41:42.319Z,15.93
2018-05-16T13:44:13.789Z,15.97
2018-05-16T13:46:45.256Z,15.91
2018-05-16T13:49:17.911Z,16.04
2018-05-16T13:51:49.376Z,16.18
2018-05-16T13:54:20.810Z,16.12
2018-05-16T13:56:52.392Z,16.33
2018-05-16T13:59:23.728Z,16.06
2018-05-16T14:01:55.087Z,16.39
2018-05-16T14:04:26.743Z,16.31
2018-05-16T14:06:58.390Z,16.37
2018-05-16T14:12:26.927Z,15.87
2018-05-16T14:14:58.163Z,16.15
2018-05-16T14:17:29.503Z,16.06
2018-05-16T14:20:00.524Z,16.38
2018-05-16T14:22:32.216Z,16.94
2018-05-16T14:25:03.658Z,16.74
2018-05-16T14:27:46.722Z,16.99
2018-05-16T14:30:21.285Z,16.92
2018-05-16T14:32:52.704Z,16.78
2018-05-16T14:35:27.145Z,16.35
2018-05-16T14:37:58.861Z,16.34
2018-05-16T14:40:30.715Z,16.10
2018-05-16T14:43:02.818Z,16.20
2018-05-16T14:45:34.252Z,16.18
2018-05-16T14:48:13.283Z,16.40
2018-05-16T14:50:44.636Z,16.73
2018-05-16T14:53:15.988Z,16.86
2018-05-16T14:58:55.566Z,16.34
2018-05-16T15:01:27.028Z,16.57
2018-05-16T15:03:58.796Z,16.51
2018-05-16T15:06:30.107Z,16.52
2018-05-16T15:09:01.781Z,16.69
2018-05-16T15:11:34.604Z,16.70
2018-05-16T15:14:06.027Z,17.02
2018-05-16T15:16:37.108Z,17.10
2018-05-16T15:19:08.328Z,17.26
2018-05-16T15:21:40.185Z,17.38
2018-05-16T15:24:11.654Z,17.19
2018-05-16T15:26:44.311Z,17.39
2018-05-16T15:29:17.820Z,17.45
2018-05-16T15:31:49.267Z,17.50
2018-05-16T15:34:20.795Z,17.73
2018-05-16T15:36:52.209Z,17.97
2018-05-16T15:39:23.968Z,18.25
2018-05-16T15:41:55.507Z,18.05
2018-05-16T15:44:26.960Z,17.28
2018-05-16T15:46:58.203Z,17.05
2018-05-16T15:49:29.656Z,17.42
2018-05-16T15:52:01.584Z,17.44
2018-05-16T15:54:32.881Z,17.46
2018-05-16T15:57:28.210Z,17.14
2018-05-16T15:59:59.881Z,17.09
2018-05-16T16:02:31.636Z,17.44
2018-05-16T16:05:07.071Z,17.49
2018-05-16T16:07:38.415Z,17.18
2018-05-16T16:10:10.164Z,17.23
2018-05-16T16:12:41.919Z,17.26
2018-05-16T16:15:13.295Z,17.36
2018-05-16T16:17:45.036Z,17.23
2018-05-16T16:20:17.495Z,17.18
2018-05-16T16:22:51.599Z,17.27
2018-05-16T16:25:23.496Z,17.12
2018-05-16T16:27:55.275Z,16.70
2018-05-16T16:30:26.932Z,16.80
2018-05-16T16:32:58.376Z,17.05
2018-05-16T16:35:32.723Z,16.91
2018-05-16T16:38:05.814Z,16.78
2018-05-16T16:40:37.464Z,16.77
2018-05-16T16:43:27.269Z,17.00
2018-05-16T16:45:58.630Z,16.81
2018-05-16T16:48:30.166Z,17.02
2018-05-16T16:51:01.520Z,17.03
2018-05-16T16:53:33.872Z,17.12
2018-05-16T16:56:05.646Z,17.24
2018-05-16T16:58:36.991Z,17.06
2018-05-16T17:01:08.366Z,17.11
2018-05-16T17:03:39.716Z,17.23
2018-05-16T17:06:11.384Z,17.08
2018-05-16T17:11:44.547Z,16.70
2018-05-16T17:14:16.016Z,16.59
2018-05-16T17:16:47.794Z,16.80
2018-05-16T17:19:19.135Z,16.86
2018-05-16T17:21:50.599Z,16.65
2018-05-16T17:24:21.939Z,16.50
2018-05-16T17:26:53.516Z,16.47
2018-05-16T17:29:24.816Z,16.71
2018-05-16T17:31:55.872Z,16.38
2018-05-16T17:34:27.239Z,16.35
2018-05-16T17:36:58.768Z,16.08
2018-05-16T17:39:30.167Z,16.01
2018-05-16T17:42:02.944Z,15.64
2018-05-16T17:47:29.615Z,15.72
2018-05-16T17:50:00.988Z,15.33
2018-05-16T17:55:28.472Z,15.37
2018-05-16T17:57:59.828Z,15.23
2018-05-16T18:00:34.118Z,15.42
2018-05-16T18:03:07.239Z,15.60
2018-05-16T18:05:39.516Z,15.39
2018-05-16T18:08:12.734Z,15.15
2018-05-16T18:10:44.200Z,15.25
2018-05-16T18:13:32.002Z,15.36
2018-05-16T18:17:15.293Z,15.07
2018-05-16T18:19:49.871Z,14.91
2018-05-16T18:22:21.491Z,15.12
2018-05-16T18:24:52.855Z,15.23
2018-05-16T18:27:37.134Z,15.26
2018-05-16T18:30:10.612Z,15.24
2018-05-16T18:32:44.470Z,14.83
2018-05-16T18:35:16.778Z,14.97
2018-05-16T18:40:50.253Z,14.72
2018-05-16T18:43:21.904Z,14.82
2018-05-16T18:45:54.846Z,14.61
2018-05-16T18:48:26.693Z,14.84
2018-05-16T18:50:58.304Z,14.88
2018-05-16T18:53:31.467Z,14.87
2018-05-16T18:56:03.418Z,14.92
2018-05-16T18:58:35.735Z,14.74
2018-05-16T19:01:07.032Z,14.91
2018-05-16T19:03:38.437Z,14.79
2018-05-16T19:06:09.886Z,14.74
2018-05-16T19:08:54.682Z,14.64
2018-05-16T19:11:27.300Z,14.83
2018-05-16T19:13:59.211Z,14.87
2018-05-16T19:16:31.055Z,14.77
2018-05-16T19:19:02.828Z,14.69
2018-05-16T19:21:34.313Z,14.31
2018-05-16T19:24:05.772Z,14.59
2018-05-16T19:26:37.208Z,14.74
2018-05-16T19:29:08.942Z,14.61
2018-05-16T19:31:40.423Z,14.70
2018-05-16T19:34:11.850Z,14.61
2018-05-16T19:36:43.263Z,14.51
2018-05-16T19:39:15.343Z,14.53
2018-05-16T19:41:46.970Z,14.61
2018-05-16T19:44:18.200Z,14.64
2018-05-16T19:46:49.936Z,14.62
2018-05-16T19:49:34.476Z,14.63
2018-05-16T19:52:07.389Z,14.56
2018-05-16T19:54:39.189Z,14.27
2018-05-16T19:57:10.700Z,14.10
2018-05-16T19:59:42.230Z,14.38
2018-05-16T20:02:14.034Z,14.64
2018-05-16T20:04:45.338Z,14.70
2018-05-16T20:07:16.701Z,14.66
2018-05-16T20:10:06.792Z,14.53
2018-05-16T20:12:38.639Z,14.39
2018-05-16T20:15:10.297Z,14.52
2018-05-16T20:17:41.941Z,14.45
2018-05-16T20:20:15.368Z,14.43
2018-05-16T20:22:47.210Z,14.38
2018-05-16T20:25:18.794Z,14.40
2018-05-16T20:27:54.815Z,14.49
2018-05-16T20:30:26.185Z,14.44
2018-05-16T20:32:58.015Z,14.39
2018-05-16T20:35:42.674Z,14.37
2018-05-16T20:38:14.594Z,14.32
2018-05-16T20:40:46.081Z,14.34
2018-05-16T20:43:30.873Z,14.00
2018-05-16T20:46:02.104Z,14.24
2018-05-16T20:48:34.121Z,14.32
2018-05-16T20:51:18.643Z,14.31
2018-05-16T20:53:50.562Z,13.87
2018-05-16T20:56:25.608Z,13.80
2018-05-16T20:58:57.302Z,14.28
2018-05-16T21:01:28.423Z,14.29
2018-05-16T21:04:16.175Z,14.39
2018-05-16T21:06:47.339Z,14.28
2018-05-16T21:09:18.922Z,14.03
2018-05-16T21:11:50.087Z,14.35
2018-05-16T21:17:16.228Z,14.18
2018-05-16T21:19:47.992Z,14.27
2018-05-16T21:22:19.278Z,14.30
2018-05-16T21:24:50.987Z,14.30
2018-05-16T21:27:24.849Z,14.32
2018-05-16T21:29:56.279Z,14.32
2018-05-16T21:32:27.491Z,14.30
2018-05-16T21:35:00.686Z,14.29
2018-05-16T21:37:32.130Z,14.27
2018-05-16T21:40:03.714Z,14.01
2018-05-16T21:42:35.139Z,14.27
2018-05-16T21:45:06.436Z,14.31
2018-05-16T21:47:37.484Z,14.30
2018-05-16T21:50:08.880Z,14.18
2018-05-16T21:52:39.891Z,13.69
2018-05-16T21:55:11.238Z,13.19
2018-05-16T21:57:42.652Z,13.34
2018-05-16T22:00:14.103Z,13.75
2018-05-16T22:02:45.532Z,14.09
2018-05-16T22:05:16.885Z,14.08
2018-05-16T22:07:48.326Z,14.11
2018-05-16T22:10:19.841Z,14.20
2018-05-16T22:12:51.217Z,14.26
2018-05-16T22:15:23.727Z,14.24
2018-05-16T22:17:55.154Z,14.23
2018-05-16T22:20:26.812Z,14.16
2018-05-16T22:22:58.258Z,14.15
2018-05-16T22:25:30.042Z,14.15
2018-05-16T22:28:01.964Z,14.18
2018-05-16T22:30:39.639Z,13.67
2018-05-16T22:33:17.143Z,13.30
2018-05-16T22:35:53.450Z,13.53
2018-05-16T22:38:29.487Z,13.08
2018-05-16T22:41:06.078Z,13.08
2018-05-16T22:43:37.499Z,13.22
2018-05-16T22:46:08.660Z,13.22
2018-05-16T22:48:42.256Z,13.57
2018-05-16T22:51:14.009Z,13.93
2018-05-16T22:53:45.371Z,14.02
2018-05-16T22:56:30.153Z,14.03
2018-05-16T22:59:01.526Z,14.02
2018-05-16T23:01:32.935Z,14.10
2018-05-16T23:04:08.810Z,14.12
2018-05-16T23:06:40.343Z,14.06
2018-05-16T23:09:11.692Z,14.02
2018-05-16T23:11:55.037Z,14.03
2018-05-16T23:14:26.451Z,14.03
2018-05-16T23:16:58.173Z,14.06
2018-05-16T23:19:29.568Z,14.15
2018-05-16T23:22:01.324Z,13.88
2018-05-16T23:24:46.422Z,13.99
2018-05-16T23:27:18.139Z,14.07
2018-05-16T23:29:49.507Z,14.01
2018-05-16T23:32:30.291Z,13.88
2018-05-16T23:35:01.903Z,14.02
2018-05-16T23:37:33.178Z,14.08
2018-05-16T23:40:04.728Z,13.99
2018-05-16T23:42:36.507Z,14.03
2018-05-16T23:45:07.855Z,14.03
2018-05-16T23:47:39.408Z,14.08
2018-05-16T23:50:10.730Z,14.13
2018-05-16T23:52:42.183Z,14.08
2018-05-16T23:55:13.531Z,14.13
2018-05-16T23:57:45.276Z,14.14
